Time;durP1;ratioP1;P1;durP2;ratioP2;P2;SDS_P1;SDS_P2;PMS_P1;PMS_P2;Temp;Humidity;BMP_temperature;BMP_pressure;BME280_temperature;BME280_humidity;BME280_pressure;Samples;Min_cycle;Max_cycle;Signal;HPM_P1;HPM_P2
2022/03/03 00:01:40;;;;;;;0.00;0.00;;;8.70;99.90;;;;;;5028902;28;20398;-61
2022/03/03 00:04:07;;;;;;;0.00;0.00;;;8.60;99.90;;;;;;5028958;28;20113;-63
2022/03/03 00:06:34;;;;;;;0.00;0.00;;;8.60;99.90;;;;;;5028724;28;20021;-60
2022/03/03 00:09:00;;;;;;;0.00;0.00;;;8.60;99.90;;;;;;5030069;28;20025;-61
2022/03/03 00:11:26;;;;;;;0.00;0.00;;;8.80;99.90;;;;;;4997877;28;20112;-62
2022/03/03 00:13:52;;;;;;;0.00;0.00;;;8.80;99.90;;;;;;5029812;28;20072;-61
2022/03/03 00:16:18;;;;;;;0.00;0.00;;;8.90;99.90;;;;;;5031067;28;20025;-62
2022/03/03 00:18:44;;;;;;;0.00;0.00;;;9.00;99.90;;;;;;5033069;28;20103;-62
2022/03/03 00:21:10;;;;;;;0.00;0.00;;;9.00;99.90;;;;;;5031730;28;20033;-63
2022/03/03 00:23:36;;;;;;;0.00;0.00;;;8.90;99.90;;;;;;5031451;28;20030;-62
2022/03/03 00:26:02;;;;;;;0.00;0.00;;;9.00;99.90;;;;;;5029371;28;20025;-62
2022/03/03 00:28:28;;;;;;;0.00;0.00;;;9.00;99.90;;;;;;5011219;28;20112;-61
2022/03/03 00:30:55;;;;;;;0.00;0.00;;;9.00;99.90;;;;;;5032339;28;20507;-64
2022/03/03 00:33:20;;;;;;;0.00;0.00;;;9.00;99.90;;;;;;5044653;28;20029;-61
2022/03/03 00:35:47;;;;;;;0.00;0.00;;;9.10;99.90;;;;;;5037357;28;20025;-61
2022/03/03 00:38:13;;;;;;;0.00;0.00;;;9.10;99.90;;;;;;5050743;28;20029;-61
2022/03/03 00:40:39;;;;;;;0.00;0.00;;;9.10;99.90;;;;;;5047869;28;20036;-61
2022/03/03 00:43:06;;;;;;;0.00;0.00;;;9.10;99.90;;;;;;5048287;28;20110;-61
2022/03/03 00:45:33;;;;;;;0.00;0.00;;;9.20;99.90;;;;;;5053515;28;20505;-61
2022/03/03 00:47:59;;;;;;;0.00;0.00;;;9.20;99.90;;;;;;5054154;28;20025;-61
2022/03/03 00:50:25;;;;;;;;;;;9.20;99.90;;;;;;5052259;28;20364;-60
2022/03/03 00:52:51;;;;;;;0.00;0.00;;;9.20;99.90;;;;;;5054043;28;19915;-61
2022/03/03 00:55:16;;;;;;;0.00;0.00;;;9.20;99.90;;;;;;5050243;28;20379;-61
2022/03/03 00:57:42;;;;;;;0.00;0.00;;;9.20;99.90;;;;;;5054162;28;20029;-63
2022/03/03 01:00:09;;;;;;;0.00;0.00;;;9.20;99.90;;;;;;5052656;28;20036;-61
2022/03/03 01:02:35;;;;;;;0.00;0.00;;;9.10;99.90;;;;;;5048751;28;20356;-60
2022/03/03 01:05:02;;;;;;;0.00;0.00;;;9.00;99.90;;;;;;5049206;28;20092;-60
2022/03/03 01:07:28;;;;;;;0.00;0.00;;;9.00;99.90;;;;;;5051549;28;20544;-60
2022/03/03 01:09:53;;;;;;;0.00;0.00;;;9.00;99.90;;;;;;5052479;28;20058;-60
2022/03/03 01:12:19;;;;;;;0.00;0.00;;;9.20;99.90;;;;;;5051694;28;20075;-61
2022/03/03 01:14:45;;;;;;;0.00;0.00;;;9.20;99.90;;;;;;5047071;28;20075;-62
2022/03/03 01:17:13;;;;;;;0.00;0.00;;;9.10;99.90;;;;;;5053243;28;20025;-61
2022/03/03 01:19:39;;;;;;;0.00;0.00;;;9.00;99.90;;;;;;5046087;28;20118;-60
2022/03/03 01:22:05;;;;;;;;;;;9.00;99.90;;;;;;5048798;28;20021;-61
2022/03/03 01:24:31;;;;;;;0.00;0.00;;;9.10;99.90;;;;;;5053881;28;19915;-60
2022/03/03 01:26:57;;;;;;;0.00;0.00;;;9.10;99.90;;;;;;5054853;28;20029;-60
2022/03/03 01:29:23;;;;;;;0.00;0.00;;;9.20;99.90;;;;;;5042259;28;20037;-60
2022/03/03 01:31:48;;;;;;;0.00;0.00;;;9.30;99.90;;;;;;5037702;28;20466;-61
2022/03/03 01:34:14;;;;;;;0.00;0.00;;;9.10;99.90;;;;;;5029725;28;20032;-61
2022/03/03 01:36:40;;;;;;;0.00;0.00;;;9.10;99.90;;;;;;5023381;28;20044;-61
2022/03/03 01:39:06;;;;;;;0.00;0.00;;;9.20;99.90;;;;;;5040892;28;20022;-60
2022/03/03 01:41:33;;;;;;;0.00;0.00;;;9.20;99.90;;;;;;5030805;28;20040;-60
2022/03/03 01:43:59;;;;;;;0.00;0.00;;;9.10;99.90;;;;;;5030923;28;20514;-61
2022/03/03 01:46:25;;;;;;;0.00;0.00;;;9.10;99.90;;;;;;5037072;28;20049;-61
2022/03/03 01:48:50;;;;;;;0.00;0.00;;;9.10;99.90;;;;;;5033765;28;20503;-62
2022/03/03 01:51:16;;;;;;;0.00;0.00;;;9.00;99.90;;;;;;5034782;28;20042;-61
2022/03/03 01:53:42;;;;;;;0.00;0.00;;;9.10;99.90;;;;;;5016842;28;20432;-60
2022/03/03 01:56:08;;;;;;;0.00;0.00;;;9.10;99.90;;;;;;5035390;28;20474;-61
2022/03/03 01:58:34;;;;;;;;;;;9.10;99.90;;;;;;5037021;28;20034;-63
2022/03/03 02:01:00;;;;;;;0.00;0.00;;;8.90;99.90;;;;;;5017863;28;19905;-61
2022/03/03 02:03:25;;;;;;;0.00;0.00;;;8.90;99.90;;;;;;5036529;28;20021;-61
2022/03/03 02:05:51;;;;;;;0.00;0.00;;;8.90;99.90;;;;;;5031322;28;20039;-60
2022/03/03 02:08:17;;;;;;;0.00;0.00;;;8.90;99.90;;;;;;5035845;28;20032;-61
2022/03/03 02:10:42;;;;;;;0.00;0.00;;;8.90;99.90;;;;;;5038480;28;20036;-60
2022/03/03 02:13:09;;;;;;;0.00;0.00;;;8.90;99.90;;;;;;5040461;28;20024;-61
2022/03/03 02:15:34;;;;;;;0.00;0.00;;;9.00;99.90;;;;;;5035168;28;20028;-61
2022/03/03 02:18:01;;;;;;;0.00;0.00;;;8.90;99.90;;;;;;5036202;28;20025;-61
2022/03/03 02:20:29;;;;;;;0.00;0.00;;;8.90;99.90;;;;;;5031119;28;20040;-61
2022/03/03 02:22:56;;;;;;;0.00;0.00;;;8.90;99.90;;;;;;5025294;28;20017;-61
2022/03/03 02:25:23;;;;;;;0.00;0.00;;;8.80;99.90;;;;;;5035410;28;20017;-63
2022/03/03 02:27:49;;;;;;;0.00;0.00;;;8.80;99.90;;;;;;5033711;28;20017;-61
2022/03/03 02:30:17;;;;;;;0.00;0.00;;;9.00;99.90;;;;;;5034634;28;20122;-61
2022/03/03 02:32:44;;;;;;;0.00;0.00;;;8.90;99.90;;;;;;5032356;28;20039;-65
2022/03/03 02:35:10;;;;;;;0.00;0.00;;;8.90;99.90;;;;;;5032676;28;20360;-61
2022/03/03 02:37:39;;;;;;;0.00;0.00;;;8.90;99.90;;;;;;5031534;28;20033;-60
2022/03/03 02:40:07;;;;;;;0.00;0.00;;;8.90;99.90;;;;;;5026670;28;20440;-62
2022/03/03 02:42:33;;;;;;;0.00;0.00;;;8.90;99.90;;;;;;5031848;28;20060;-60
2022/03/03 02:44:59;;;;;;;0.00;0.00;;;8.90;99.90;;;;;;5029622;28;20428;-60
2022/03/03 02:47:25;;;;;;;0.00;0.00;;;8.80;99.90;;;;;;5032200;28;20060;-60
2022/03/03 02:49:51;;;;;;;0.00;0.00;;;8.70;99.90;;;;;;5037883;28;20028;-61
2022/03/03 02:52:16;;;;;;;0.00;0.00;;;8.80;99.90;;;;;;5012100;28;20184;-60
2022/03/03 02:54:42;;;;;;;0.00;0.00;;;8.80;99.90;;;;;;5015764;28;20479;-61
2022/03/03 02:59:52;;;;;;;0.00;0.00;;;8.90;99.90;;;;;;5032239;28;20163;-62
2022/03/03 03:02:18;;;;;;;0.00;0.00;;;8.70;99.90;;;;;;5031132;28;20371;-61
2022/03/03 03:04:44;;;;;;;0.00;0.00;;;8.70;99.90;;;;;;5017306;28;20055;-61
2022/03/03 03:07:12;;;;;;;0.00;0.00;;;8.80;99.90;;;;;;5025729;28;20026;-62
2022/03/03 03:09:38;;;;;;;0.00;0.00;;;8.90;99.90;;;;;;5030596;28;20033;-61
2022/03/03 03:12:04;;;;;;;0.00;0.00;;;8.90;99.90;;;;;;5028089;28;20041;-62
2022/03/03 03:14:30;;;;;;;0.00;0.00;;;8.90;99.90;;;;;;5023945;28;20033;-61
2022/03/03 03:16:55;;;;;;;0.00;0.00;;;8.80;99.90;;;;;;5027162;28;20033;-62
2022/03/03 03:19:21;;;;;;;0.00;0.00;;;8.80;99.90;;;;;;5012979;28;20036;-61
2022/03/03 03:21:47;;;;;;;0.00;0.00;;;8.80;99.90;;;;;;5035640;28;20092;-62
2022/03/03 03:24:13;;;;;;;0.00;0.00;;;8.80;99.90;;;;;;5021884;28;20069;-61
2022/03/03 03:26:39;;;;;;;0.00;0.00;;;8.80;99.90;;;;;;5010542;28;20052;-62
2022/03/03 03:29:05;;;;;;;0.00;0.00;;;8.80;99.90;;;;;;5017760;28;20022;-63
2022/03/03 03:31:31;;;;;;;0.00;0.00;;;8.80;99.90;;;;;;5020744;28;20030;-61
2022/03/03 03:33:57;;;;;;;0.00;0.00;;;8.80;99.90;;;;;;5033625;28;20037;-61
2022/03/03 03:36:23;;;;;;;0.00;0.00;;;8.70;99.90;;;;;;5031991;28;20394;-60
2022/03/03 03:38:49;;;;;;;0.00;0.00;;;8.80;99.90;;;;;;5006253;28;20104;-61
2022/03/03 03:41:14;;;;;;;0.00;0.00;;;8.80;99.90;;;;;;5022034;28;20025;-62
2022/03/03 03:43:40;;;;;;;0.00;0.00;;;8.80;99.90;;;;;;5025667;28;20031;-61
2022/03/03 03:46:05;;;;;;;0.00;0.00;;;8.90;99.90;;;;;;5012213;28;20541;-60
2022/03/03 03:48:31;;;;;;;0.00;0.00;;;8.80;99.90;;;;;;5027912;28;20028;-61
2022/03/03 03:50:57;;;;;;;0.00;0.00;;;8.70;99.90;;;;;;5024278;28;20132;-61
2022/03/03 03:53:23;;;;;;;;;;;8.80;99.90;;;;;;5026602;28;20036;-60
2022/03/03 03:55:50;;;;;;;0.00;0.00;;;8.90;99.90;;;;;;5026927;28;20370;-61
2022/03/03 03:58:16;;;;;;;0.00;0.00;;;8.90;99.90;;;;;;5006072;28;20021;-60
2022/03/03 04:00:42;;;;;;;0.00;0.00;;;8.90;99.90;;;;;;5028279;28;20021;-61
2022/03/03 04:03:08;;;;;;;0.00;0.00;;;8.90;99.90;;;;;;5029323;28;20021;-61
2022/03/03 04:05:35;;;;;;;;;;;8.90;99.90;;;;;;5026294;28;20029;-60
2022/03/03 04:08:01;;;;;;;0.00;0.00;;;8.90;99.90;;;;;;5036026;28;19940;-61
2022/03/03 04:10:28;;;;;;;;;;;9.00;99.90;;;;;;5010648;28;21231;-61
2022/03/03 04:12:54;;;;;;;0.00;0.00;;;9.10;99.90;;;;;;5030795;28;19913;-61
2022/03/03 04:15:20;;;;;;;0.00;0.00;;;9.00;99.90;;;;;;5031292;28;20032;-61
2022/03/03 04:17:46;;;;;;;0.00;0.00;;;9.00;99.90;;;;;;5033605;28;20025;-61
2022/03/03 04:20:11;;;;;;;0.00;0.00;;;9.00;99.90;;;;;;5032215;28;20033;-61
2022/03/03 04:22:37;;;;;;;0.00;0.00;;;9.10;99.90;;;;;;5031540;28;20018;-61
2022/03/03 04:25:04;;;;;;;0.00;0.00;;;8.90;99.90;;;;;;5035228;28;20026;-60
2022/03/03 04:27:30;;;;;;;0.00;0.00;;;8.80;99.90;;;;;;5029870;28;20112;-60
2022/03/03 04:29:56;;;;;;;0.00;0.00;;;8.70;99.90;;;;;;5029134;28;21095;-61
2022/03/03 04:32:21;;;;;;;0.00;0.00;;;8.70;99.90;;;;;;5027625;28;20045;-62
2022/03/03 04:34:47;;;;;;;0.00;0.00;;;8.70;99.90;;;;;;5034914;28;20017;-61
2022/03/03 04:37:12;;;;;;;0.00;0.00;;;8.60;99.90;;;;;;5032338;28;20026;-61
2022/03/03 04:39:38;;;;;;;0.00;0.00;;;8.60;99.90;;;;;;5035702;28;20091;-61
2022/03/03 04:42:04;;;;;;;0.00;0.00;;;8.60;99.90;;;;;;5039387;28;20033;-63
2022/03/03 04:44:30;;;;;;;0.00;0.00;;;8.60;99.90;;;;;;5036254;28;20083;-61
2022/03/03 04:46:55;;;;;;;0.00;0.00;;;8.70;99.90;;;;;;5034760;28;20105;-60
2022/03/03 04:49:21;;;;;;;0.00;0.00;;;8.80;99.90;;;;;;5030670;28;20053;-61
2022/03/03 04:51:47;;;;;;;0.00;0.00;;;8.90;99.90;;;;;;5033471;28;20033;-60
2022/03/03 04:54:12;;;;;;;0.00;0.00;;;9.00;99.90;;;;;;5032143;28;20028;-60
2022/03/03 04:56:39;;;;;;;0.00;0.00;;;9.00;99.90;;;;;;5029186;28;20526;-61
2022/03/03 04:59:06;;;;;;;0.00;0.00;;;9.00;99.90;;;;;;5031172;28;20033;-61
2022/03/03 05:01:31;;;;;;;0.00;0.00;;;9.10;99.90;;;;;;5028779;28;20076;-61
2022/03/03 05:03:57;;;;;;;0.00;0.00;;;9.10;99.90;;;;;;5034130;28;20029;-61
2022/03/03 05:06:23;;;;;;;0.00;0.00;;;9.00;99.90;;;;;;5034784;28;20022;-60
2022/03/03 05:08:49;;;;;;;0.00;0.00;;;8.90;99.90;;;;;;5026069;28;20060;-61
2022/03/03 05:11:15;;;;;;;0.00;0.00;;;8.90;99.90;;;;;;5026900;28;20044;-61
2022/03/03 05:13:41;;;;;;;0.00;0.00;;;8.80;99.90;;;;;;5007859;28;20067;-60
2022/03/03 05:16:07;;;;;;;0.00;0.00;;;8.80;99.90;;;;;;5031967;28;20387;-60
2022/03/03 05:18:32;;;;;;;0.00;0.00;;;8.80;99.90;;;;;;5033853;28;20029;-62
2022/03/03 05:20:58;;;;;;;0.00;0.00;;;8.80;99.90;;;;;;5011723;28;20026;-61
2022/03/03 05:23:24;;;;;;;0.00;0.00;;;8.80;99.90;;;;;;5030857;28;20581;-61
2022/03/03 05:25:50;;;;;;;0.00;0.00;;;8.80;99.90;;;;;;5030492;28;20472;-61
2022/03/03 05:28:16;;;;;;;0.00;0.00;;;8.80;99.90;;;;;;5033095;28;20029;-60
2022/03/03 05:30:42;;;;;;;;;;;8.70;99.90;;;;;;5045702;28;20052;-61
2022/03/03 05:33:08;;;;;;;0.00;0.00;;;8.80;99.90;;;;;;5054406;28;19908;-61
2022/03/03 05:35:33;;;;;;;0.00;0.00;;;8.80;99.90;;;;;;5053336;28;20052;-60
2022/03/03 05:37:59;;;;;;;0.00;0.00;;;8.90;99.90;;;;;;5053283;28;20045;-60
2022/03/03 05:40:25;;;;;;;0.00;0.00;;;8.80;99.90;;;;;;5052789;28;20387;-61
2022/03/03 05:42:52;;;;;;;0.00;0.00;;;8.70;99.90;;;;;;5053262;28;20367;-61
2022/03/03 05:45:17;;;;;;;0.00;0.00;;;8.70;99.90;;;;;;5048870;28;20052;-61
2022/03/03 05:47:46;;;;;;;0.00;0.00;;;8.70;99.90;;;;;;5048572;28;21267;-61
2022/03/03 05:50:12;;;;;;;0.00;0.00;;;8.70;99.90;;;;;;5058739;28;20036;-61
2022/03/03 05:52:38;;;;;;;0.00;0.00;;;8.70;99.90;;;;;;5051244;28;20120;-60
2022/03/03 05:55:05;;;;;;;0.00;0.00;;;8.60;99.90;;;;;;5051843;28;20037;-61
2022/03/03 05:57:38;;;;;;;0.00;0.00;;;8.70;99.90;;;;;;5068771;28;20071;-61
2022/03/03 06:00:12;;;;;;;0.00;0.00;;;8.70;99.90;;;;;;5051415;28;20072;-60
2022/03/03 06:02:42;;;;;;;0.00;0.00;;;8.70;99.90;;;;;;5051562;28;20094;-61
2022/03/03 06:05:08;;;;;;;0.00;0.00;;;8.70;99.90;;;;;;5057289;28;20041;-61
2022/03/03 06:07:39;;;;;;;0.00;0.00;;;8.70;99.90;;;;;;5054526;28;20550;-60
2022/03/03 06:10:06;;;;;;;0.00;0.00;;;8.80;99.90;;;;;;5051636;28;20033;-62
2022/03/03 06:12:45;;;;;;;0.00;0.00;;;8.80;99.90;;;;;;5052064;28;20029;-61
2022/03/03 06:15:13;;;;;;;0.00;0.00;;;8.80;99.90;;;;;;5052670;28;20505;-61
2022/03/03 06:17:42;;;;;;;0.00;0.00;;;8.80;99.90;;;;;;5054824;28;20108;-61
2022/03/03 06:20:08;;;;;;;0.00;0.00;;;8.80;99.90;;;;;;5050211;28;20660;-61
2022/03/03 06:22:34;;;;;;;0.00;0.00;;;8.80;99.90;;;;;;5053818;28;20440;-61
2022/03/03 06:24:59;;;;;;;0.00;0.00;;;8.80;99.90;;;;;;5048866;28;20112;-61
2022/03/03 06:27:26;;;;;;;0.00;0.00;;;8.90;99.90;;;;;;5037672;28;20057;-62
2022/03/03 06:29:55;;;;;;;0.00;0.00;;;9.00;99.90;;;;;;5051772;28;20053;-61
2022/03/03 06:32:21;;;;;;;0.00;0.00;;;9.00;99.90;;;;;;5012498;28;20113;-62
2022/03/03 06:34:46;;;;;;;0.00;0.00;;;8.90;99.90;;;;;;5013020;28;20018;-61
2022/03/03 06:37:12;;;;;;;0.00;0.00;;;8.90;99.90;;;;;;5029419;28;20518;-61
2022/03/03 06:39:40;;;;;;;0.00;0.00;;;8.80;99.90;;;;;;5030440;28;20025;-62
2022/03/03 06:42:07;;;;;;;0.00;0.00;;;8.80;99.90;;;;;;5031124;28;20120;-62
2022/03/03 06:44:33;;;;;;;0.00;0.00;;;8.80;99.90;;;;;;5028715;28;20053;-61
2022/03/03 06:47:02;;;;;;;0.00;0.00;;;8.90;99.90;;;;;;5022305;28;20022;-62
2022/03/03 06:49:28;;;;;;;0.00;0.00;;;8.90;99.90;;;;;;5025231;28;20018;-63
2022/03/03 06:51:56;;;;;;;0.00;0.00;;;8.80;99.90;;;;;;5030127;28;20406;-61
2022/03/03 06:54:24;;;;;;;0.00;0.00;;;8.80;99.90;;;;;;5007234;28;20041;-62
2022/03/03 06:56:55;;;;;;;0.00;0.00;;;8.90;99.90;;;;;;5025731;28;20391;-61
2022/03/03 06:59:26;;;;;;;0.00;0.00;;;8.90;99.90;;;;;;5022457;28;20026;-62
2022/03/03 07:01:54;;;;;;;0.00;0.00;;;8.90;99.90;;;;;;5028136;28;20113;-60
2022/03/03 07:04:21;;;;;;;0.00;0.00;;;9.00;99.90;;;;;;5032143;28;20036;-61
2022/03/03 07:06:48;;;;;;;0.00;0.00;;;9.10;99.90;;;;;;5029300;28;20116;-62
2022/03/03 07:09:15;;;;;;;0.00;0.00;;;9.00;99.90;;;;;;5024620;28;20033;-60
2022/03/03 07:11:42;;;;;;;0.00;0.00;;;9.10;99.90;;;;;;5033611;28;20021;-62
2022/03/03 07:14:09;;;;;;;0.00;0.00;;;9.10;99.90;;;;;;5029555;28;20029;-62
2022/03/03 07:16:37;;;;;;;;;;;9.10;99.90;;;;;;5024657;28;20327;-60
2022/03/03 07:19:05;;;;;;;0.00;0.00;;;9.10;99.90;;;;;;5031795;28;19916;-61
2022/03/03 07:22:22;;;;;;;0.00;0.00;;;9.10;99.90;;;;;;5026922;28;20075;-61
2022/03/03 07:25:11;;;;;;;0.00;0.00;;;9.00;99.90;;;;;;4986635;28;20045;-63
2022/03/03 07:27:45;;;;;;;0.00;0.00;;;9.10;99.90;;;;;;5028089;28;20044;-62
2022/03/03 07:30:15;;;;;;;0.00;0.00;;;9.10;99.90;;;;;;5027810;28;20270;-61
2022/03/03 07:32:48;;;;;;;0.00;0.00;;;9.10;99.90;;;;;;5030088;28;20053;-62
2022/03/03 07:35:15;;;;;;;0.00;0.00;;;9.30;99.90;;;;;;5028261;28;20041;-61
2022/03/03 07:37:56;;;;;;;0.00;0.00;;;9.30;99.90;;;;;;5014049;28;20030;-62
2022/03/03 07:40:27;;;;;;;0.00;0.00;;;9.30;99.90;;;;;;5031124;28;20057;-59
2022/03/03 07:42:55;;;;;;;0.00;0.00;;;9.30;99.90;;;;;;5027086;28;20369;-61
2022/03/03 07:45:21;;;;;;;0.00;0.00;;;9.20;99.90;;;;;;5015194;28;20021;-66
2022/03/03 07:47:51;;;;;;;0.00;0.00;;;9.40;99.90;;;;;;5023959;28;20017;-61
2022/03/03 07:50:19;;;;;;;0.00;0.00;;;9.40;99.90;;;;;;5029438;28;20107;-61
2022/03/03 07:52:45;;;;;;;0.00;0.00;;;9.40;99.90;;;;;;5027051;28;20099;-61
2022/03/03 07:55:10;;;;;;;0.00;0.00;;;9.30;99.90;;;;;;5025253;28;20026;-62
2022/03/03 07:58:02;;;;;;;0.00;0.00;;;9.40;99.90;;;;;;5027466;28;20031;-61
2022/03/03 08:00:31;;;;;;;0.00;0.00;;;9.50;99.90;;;;;;5032011;28;20018;-60
2022/03/03 08:02:59;;;;;;;0.00;0.00;;;9.40;99.90;;;;;;5031359;28;20025;-61
2022/03/03 08:05:29;;;;;;;0.00;0.00;;;9.50;99.90;;;;;;5029510;28;20022;-64
2022/03/03 08:07:56;;;;;;;0.00;0.00;;;9.60;99.90;;;;;;5029766;28;20383;-62
2022/03/03 08:10:25;;;;;;;0.00;0.00;;;9.80;99.90;;;;;;5028911;28;20036;-62
2022/03/03 08:12:55;;;;;;;0.00;0.00;;;9.70;99.90;;;;;;5026041;28;20080;-61
2022/03/03 08:15:21;;;;;;;0.00;0.00;;;9.70;99.90;;;;;;5011501;28;20125;-61
2022/03/03 08:17:51;;;;;;;;;;;9.90;99.90;;;;;;5025403;28;20053;-61
2022/03/03 08:20:17;;;;;;;0.00;0.00;;;10.00;99.90;;;;;;5020833;28;20643;-60
2022/03/03 08:22:43;;;;;;;0.00;0.00;;;10.10;99.90;;;;;;5027268;28;20033;-60
2022/03/03 08:25:11;;;;;;;0.00;0.00;;;10.20;99.90;;;;;;5031829;28;20018;-61
2022/03/03 08:27:38;;;;;;;0.00;0.00;;;10.20;99.90;;;;;;5023866;28;20113;-61
2022/03/03 08:30:08;;;;;;;0.00;0.00;;;10.10;99.90;;;;;;5022916;28;20080;-62
2022/03/03 08:32:39;;;;;;;0.00;0.00;;;10.20;99.90;;;;;;5032036;28;20104;-62
2022/03/03 08:35:10;;;;;;;0.00;0.00;;;10.20;99.90;;;;;;5027803;28;20036;-61
2022/03/03 08:37:39;;;;;;;0.00;0.00;;;10.20;99.90;;;;;;5030765;28;20034;-61
2022/03/03 08:40:07;;;;;;;0.00;0.00;;;10.20;99.90;;;;;;5021612;28;20041;-60
2022/03/03 08:42:39;;;;;;;0.00;0.00;;;10.30;99.90;;;;;;5016574;28;20452;-63
2022/03/03 08:45:09;;;;;;;0.00;0.00;;;10.20;99.90;;;;;;5026365;28;20037;-62
2022/03/03 08:47:35;;;;;;;0.00;0.00;;;10.20;99.90;;;;;;5029886;28;20028;-61
2022/03/03 08:50:08;;;;;;;0.00;0.00;;;10.10;99.90;;;;;;5031713;28;20030;-60
2022/03/03 08:52:38;;;;;;;0.00;0.00;;;10.10;99.90;;;;;;5025315;28;20049;-62
2022/03/03 08:55:05;;;;;;;0.00;0.00;;;10.10;99.90;;;;;;5032536;28;20018;-62
2022/03/03 08:57:30;;;;;;;0.00;0.00;;;9.90;99.90;;;;;;5014138;28;20061;-62
2022/03/03 08:59:56;;;;;;;0.00;0.00;;;9.80;99.90;;;;;;5037127;28;20052;-61
2022/03/03 09:02:24;;;;;;;0.00;0.00;;;9.90;99.90;;;;;;5036959;28;20044;-61
2022/03/03 09:04:50;;;;;;;0.00;0.00;;;9.90;99.90;;;;;;5031287;28;20017;-64
2022/03/03 09:07:15;;;;;;;0.00;0.00;;;10.00;99.90;;;;;;5011055;28;20014;-62
2022/03/03 09:09:42;;;;;;;0.00;0.00;;;10.00;99.90;;;;;;5020918;28;20032;-64
2022/03/03 09:12:08;;;;;;;;;;;10.00;99.90;;;;;;5027170;28;20361;-61
2022/03/03 09:14:34;;;;;;;0.00;0.00;;;10.00;99.90;;;;;;5038029;28;19983;-62
2022/03/03 09:17:00;;;;;;;;;;;10.20;99.90;;;;;;5028235;28;20034;-62
2022/03/03 09:19:26;;;;;;;0.00;0.00;;;10.30;99.90;;;;;;5034510;28;20001;-62
2022/03/03 09:21:52;;;;;;;0.00;0.00;;;10.30;99.90;;;;;;5032795;28;20030;-62
2022/03/03 09:24:18;;;;;;;0.00;0.00;;;10.30;99.90;;;;;;5031029;28;20099;-61
2022/03/03 09:26:43;;;;;;;0.00;0.00;;;10.20;99.90;;;;;;5032652;28;20040;-60
2022/03/03 09:29:09;;;;;;;0.00;0.00;;;10.10;99.90;;;;;;4998413;28;20026;-60
2022/03/03 09:31:35;;;;;;;0.00;0.00;;;10.20;99.90;;;;;;5036525;28;20124;-62
2022/03/03 09:34:01;;;;;;;0.00;0.00;;;10.10;99.90;;;;;;5037593;28;20442;-62
2022/03/03 09:36:26;;;;;;;0.00;0.00;;;10.10;99.90;;;;;;5038757;28;20021;-62
2022/03/03 09:38:52;;;;;;;0.00;0.00;;;10.10;99.90;;;;;;5029981;28;20071;-62
2022/03/03 09:41:19;;;;;;;0.00;0.00;;;10.20;99.90;;;;;;5013061;28;20586;-61
2022/03/03 09:43:45;;;;;;;0.00;0.00;;;10.20;99.90;;;;;;5032381;28;20084;-61
2022/03/03 09:46:11;;;;;;;0.00;0.00;;;10.20;99.90;;;;;;5033259;28;20112;-62
2022/03/03 09:48:37;;;;;;;0.00;0.00;;;10.20;99.90;;;;;;5028333;28;20344;-62
2022/03/03 09:51:03;;;;;;;0.00;0.00;;;10.40;99.90;;;;;;5031379;28;20026;-62
2022/03/03 09:53:28;;;;;;;0.00;0.00;;;10.50;99.90;;;;;;5016324;28;20038;-61
2022/03/03 09:55:55;;;;;;;0.00;0.00;;;10.60;99.90;;;;;;5023627;28;20471;-61
2022/03/03 09:58:20;;;;;;;;;;;10.50;99.90;;;;;;5023816;28;20484;-60
2022/03/03 10:00:48;;;;;;;0.00;0.00;;;10.50;99.90;;;;;;5027453;28;19916;-62
2022/03/03 10:03:18;;;;;;;0.00;0.00;;;10.50;99.90;;;;;;5029206;28;20025;-62
2022/03/03 10:05:48;;;;;;;0.00;0.00;;;10.60;99.90;;;;;;5031541;28;20067;-61
2022/03/03 10:08:23;;;;;;;0.00;0.00;;;10.80;99.90;;;;;;5030413;28;20049;-60
2022/03/03 10:11:01;;;;;;;0.00;0.00;;;10.70;99.90;;;;;;5032392;28;20122;-61
2022/03/03 10:13:42;;;;;;;0.00;0.00;;;10.80;99.90;;;;;;5024837;28;20418;-62
2022/03/03 10:16:08;;;;;;;0.00;0.00;;;10.90;99.90;;;;;;5027571;28;20450;-61
2022/03/03 10:18:34;;;;;;;0.00;0.00;;;11.10;99.90;;;;;;5033926;28;20055;-62
2022/03/03 10:21:05;;;;;;;0.00;0.00;;;11.20;99.90;;;;;;5019679;28;20041;-62
2022/03/03 10:23:33;;;;;;;0.00;0.00;;;11.40;99.90;;;;;;5020174;28;20037;-62
2022/03/03 10:26:02;;;;;;;0.00;0.00;;;11.50;99.90;;;;;;5025842;28;20033;-62
2022/03/03 10:28:33;;;;;;;0.00;0.00;;;11.60;99.90;;;;;;5028406;28;20092;-62
2022/03/03 10:31:03;;;;;;;0.00;0.00;;;11.70;99.90;;;;;;5024747;28;20100;-62
2022/03/03 10:33:35;;;;;;;0.00;0.00;;;11.80;99.90;;;;;;5032197;28;20061;-63
2022/03/03 10:36:02;;;;;;;0.00;0.00;;;11.90;99.90;;;;;;5014722;28;20034;-61
2022/03/03 10:38:29;;;;;;;0.00;0.00;;;11.90;99.90;;;;;;5027114;28;20017;-61
2022/03/03 10:40:55;;;;;;;0.00;0.00;;;11.90;99.90;;;;;;5031182;28;20379;-62
2022/03/03 10:43:21;;;;;;;;;;;12.00;99.90;;;;;;5033155;28;20403;-62
2022/03/03 10:46:01;;;;;;;0.00;0.00;;;12.20;99.90;;;;;;5032938;28;19909;-62
2022/03/03 10:48:28;;;;;;;0.00;0.00;;;12.30;99.90;;;;;;5026168;28;20036;-61
2022/03/03 10:50:55;;;;;;;0.00;0.00;;;12.60;99.90;;;;;;5034381;28;20033;-61
2022/03/03 10:53:25;;;;;;;0.00;0.00;;;12.60;99.90;;;;;;5034319;28;20098;-62
2022/03/03 10:56:05;;;;;;;0.00;0.00;;;12.50;99.90;;;;;;5024773;28;20030;-60
2022/03/03 10:58:57;;;;;;;0.00;0.00;;;12.60;99.90;;;;;;5024545;28;20041;-61
2022/03/03 11:01:32;;;;;;;0.00;0.00;;;12.40;99.90;;;;;;5032267;28;20030;-63
2022/03/03 11:03:59;;;;;;;0.00;0.00;;;12.40;99.90;;;;;;5021647;28;20064;-62
2022/03/03 11:06:29;;;;;;;0.00;0.00;;;12.30;99.90;;;;;;5033060;28;20022;-60
2022/03/03 11:08:56;;;;;;;0.00;0.00;;;12.50;99.90;;;;;;5018533;28;20040;-62
2022/03/03 11:11:24;;;;;;;0.00;0.00;;;12.70;99.90;;;;;;5008286;28;20552;-61
2022/03/03 11:13:54;;;;;;;0.00;0.00;;;12.60;99.90;;;;;;5030431;28;20061;-61
2022/03/03 11:16:28;;;;;;;0.00;0.00;;;12.50;99.90;;;;;;5013055;28;20038;-61
2022/03/03 11:18:54;;;;;;;0.00;0.00;;;12.50;99.90;;;;;;5019445;28;20125;-61
2022/03/03 11:21:20;;;;;;;0.00;0.00;;;12.40;99.90;;;;;;5030961;28;20029;-61
2022/03/03 11:23:58;;;;;;;0.00;0.00;;;12.30;99.90;;;;;;5011683;28;20028;-62
2022/03/03 11:26:30;;;;;;;0.00;0.00;;;12.20;99.90;;;;;;5032399;28;20036;-62
2022/03/03 11:29:22;;;;;;;0.00;0.00;;;11.90;99.90;;;;;;5013804;28;20033;-61
2022/03/03 11:32:01;;;;;;;0.00;0.00;;;12.00;99.90;;;;;;5049626;28;20053;-60
2022/03/03 11:34:32;;;;;;;0.00;0.00;;;12.10;99.90;;;;;;5032632;28;20053;-61
2022/03/03 11:37:06;;;;;;;0.00;0.00;;;12.10;99.90;;;;;;5054925;28;20051;-62
2022/03/03 11:39:57;;;;;;;0.00;0.00;;;12.20;99.90;;;;;;5051103;28;20025;-62
2022/03/03 11:42:28;;;;;;;0.00;0.00;;;12.20;99.90;;;;;;5050573;28;20036;-61
2022/03/03 11:45:17;;;;;;;0.00;0.00;;;12.30;99.90;;;;;;5029682;28;20035;-61
2022/03/03 11:47:45;;;;;;;0.00;0.00;;;12.30;99.90;;;;;;5048737;28;20060;-61
2022/03/03 11:50:16;;;;;;;0.00;0.00;;;12.40;99.90;;;;;;5047687;28;20033;-62
2022/03/03 11:52:59;;;;;;;0.00;0.00;;;12.60;99.90;;;;;;5047525;28;20032;-61
2022/03/03 11:55:29;;;;;;;0.00;0.00;;;12.60;99.90;;;;;;5049877;28;20463;-60
2022/03/03 11:58:00;;;;;;;0.00;0.00;;;12.50;99.90;;;;;;5051376;28;20021;-61
2022/03/03 12:00:26;;;;;;;0.00;0.00;;;12.50;99.90;;;;;;5038822;28;20426;-63
2022/03/03 12:03:03;;;;;;;;;;;12.50;99.90;;;;;;5051593;28;20154;-61
2022/03/03 12:05:33;;;;;;;0.00;0.00;;;12.60;99.90;;;;;;5045879;28;19912;-62
2022/03/03 12:08:01;;;;;;;0.00;0.00;;;12.40;99.90;;;;;;5048268;28;20033;-61
2022/03/03 12:10:28;;;;;;;0.00;0.00;;;12.30;99.90;;;;;;5034032;28;20110;-61
2022/03/03 12:13:26;;;;;;;0.00;0.00;;;12.20;99.90;;;;;;5050855;28;20585;-62
2022/03/03 12:16:14;;;;;;;0.00;0.00;;;12.40;99.90;;;;;;5044872;28;20074;-61
2022/03/03 12:18:42;;;;;;;0.00;0.00;;;12.50;99.90;;;;;;5024821;28;20110;-61
2022/03/03 12:21:42;;;;;;;0.00;0.00;;;12.50;99.90;;;;;;5032843;28;20036;-62
2022/03/03 12:24:14;;;;;;;0.00;0.00;;;12.60;99.90;;;;;;5046968;28;20033;-61
2022/03/03 12:27:01;;;;;;;0.00;0.00;;;12.50;99.90;;;;;;5052014;28;20029;-62
2022/03/03 12:29:37;;;;;;;0.00;0.00;;;12.40;99.90;;;;;;5049712;28;20045;-61
2022/03/03 12:32:31;;;;;;;0.00;0.00;;;12.50;99.90;;;;;;5006200;28;20070;-60
2022/03/03 12:35:03;;;;;;;0.00;0.00;;;12.60;99.90;;;;;;5028190;28;20121;-62
2022/03/03 12:37:30;;;;;;;0.00;0.00;;;12.60;99.90;;;;;;5032081;28;20052;-62
2022/03/03 12:40:02;;;;;;;0.00;0.00;;;12.70;99.90;;;;;;5033685;28;20116;-62
2022/03/03 12:42:32;;;;;;;0.00;0.00;;;12.80;99.90;;;;;;5033276;28;20053;-61
2022/03/03 12:45:07;;;;;;;0.00;0.00;;;12.80;99.90;;;;;;5024013;28;20053;-61
2022/03/03 12:47:53;;;;;;;0.00;0.00;;;12.70;99.90;;;;;;5030238;28;20115;-62
2022/03/03 12:50:26;;;;;;;0.00;0.00;;;12.60;99.90;;;;;;5033705;28;20032;-62
2022/03/03 12:53:06;;;;;;;0.00;0.00;;;12.50;99.90;;;;;;5028096;28;20395;-62
2022/03/03 12:55:38;;;;;;;0.00;0.00;;;12.40;99.90;;;;;;5030023;28;20032;-63
2022/03/03 12:58:06;;;;;;;0.00;0.00;;;12.20;99.90;;;;;;5035884;28;20108;-62
2022/03/03 13:00:35;;;;;;;0.00;0.00;;;12.10;99.90;;;;;;5016016;28;20029;-62
2022/03/03 13:03:02;;;;;;;0.00;0.00;;;12.20;99.90;;;;;;5016804;28;20471;-61
2022/03/03 13:05:30;;;;;;;0.00;0.00;;;12.20;99.90;;;;;;5033049;28;20460;-61
2022/03/03 13:07:56;;;;;;;0.00;0.00;;;12.30;99.90;;;;;;5024655;28;20017;-61